This is the latest recevied weather packets stored in our database for station/object OE-11138. If no packets are shown the sender has not sent any weather packets the latest 10 day(s).
| Time | Temp. | Humidity | Pressure | Rain* | Wind** | Luminosity | Snow |
|---|---|---|---|---|---|---|---|
| 1787875896 | 13.89° C | 70% | 718.7 hPa | 0 mm | - | 0 W/m² | - |
| 1787875523 | 13.89° C | 70% | 718.9 hPa | 0 mm | - | 0 W/m² | - |
| 1787874924 | 13.89° C | 71% | 718.8 hPa | 0 mm | - | 0 W/m² | - |
| 1787874096 | 13.89° C | 72% | 718.9 hPa | 0 mm | - | 0 W/m² | - |
| 1787873724 | 13.89° C | 70% | 718.9 hPa | 0 mm | - | 0 W/m² | - |
| 1787873123 | 14.44° C | 70% | 718.9 hPa | 0 mm | - | 0 W/m² | - |
| 1787872524 | 13.89° C | 71% | 719 hPa | 0 mm | - | 0 W/m² | - |
| 1787871923 | 13.89° C | 72% | 719.1 hPa | 0 mm | - | 0 W/m² | - |
| 1787870497 | 14.44° C | 70% | 719.2 hPa | 0 mm | - | 0 W/m² | - |
| 1787870124 | 14.44° C | 69% | 719.5 hPa | 0 mm | - | 0 W/m² | - |
| 1787869524 | 13.89° C | 74% | 719.4 hPa | 0 mm | - | 0 W/m² | - |
| 1787868697 | 13.89° C | 76% | 719.4 hPa | 0 mm | - | 0 W/m² | - |
| 1787868323 | 13.89° C | 75% | 719.3 hPa | 0 mm | - | 0 W/m² | - |
| 1787867724 | 13.89° C | 78% | 719.2 hPa | 0 mm | - | 0 W/m² | - |
| 1787866897 | 14.44° C | 75% | 719.7 hPa | 0 mm | - | 0 W/m² | - |
| 1787866523 | 13.89° C | 75% | 719.4 hPa | 0 mm | - | 0 W/m² | - |
| 1787865924 | 13.89° C | 77% | 719.3 hPa | 0 mm | - | 0 W/m² | - |
| 1787865097 | 14.44° C | 75% | 719.4 hPa | 0 mm | - | 0 W/m² | - |
| 1787864723 | 13.89° C | 78% | 719.4 hPa | 0 mm | - | 0 W/m² | - |
| 1787864123 | 14.44° C | 76% | 719.6 hPa | 0 mm | - | 0 W/m² | - |
| 1787863297 | 14.44° C | 77% | 719.8 hPa | 0 mm | - | 0 W/m² | - |
| 1787862924 | 13.89° C | 79% | 719.4 hPa | 0 mm | - | 0 W/m² | - |
| 1787862324 | 14.44° C | 78% | 719.9 hPa | 0 mm | - | 0 W/m² | - |
| 1787861497 | 14.44° C | 78% | 719.8 hPa | 0 mm | - | 0 W/m² | - |
| 1787861124 | 14.44° C | 77% | 719.8 hPa | 0 mm | - | 0 W/m² | - |
* Rain latest hour (hover to see other rain measurements)
** Current wind speed in m/s (hover to see current wind gust speed)